LERS

Reus Airport

Airport
ICAO code
LERS
IATA Code
REU
Summary
ICAO Region
EUR
ICAO Territory
Location

Reus, Catalonia

Serving
Reus
Elevation
233 ft
Coordinates
41° 8' 51" N , 1° 10' 2" E
Metar
Observation
LERS 270330Z AUTO VRB01KT CAVOK M00/M03 Q1013
Station
Reus / Aeropuerto
Date/Time
2023-01-27 03:30:00
Wind speed
01 kts
Lowest cloud amount
clouds and visibility OK
Temperature
-0°C
Dew point
-3°C
Humidity
80%
QNH
1013 hPa
Weather condition
n/a

Runways

Designator Length Width Surface Rops
12/30 950 35 GRE No/No
7/25 2455 45 ASP Yes/Yes

Airport map

Aerial View

SKYbrary Partners:

Safety knowledge contributed by: